createdAt,value
2023-05-14T00:01:00.386Z,38.70
2023-05-14T00:06:05.600Z,38.27
2023-05-14T00:11:09.239Z,38.02
2023-05-14T00:16:12.986Z,38.63
2023-05-14T00:21:18.296Z,38.40
2023-05-14T00:26:21.713Z,40.10
2023-05-14T00:31:25.423Z,40.39
2023-05-14T00:36:31.169Z,39.42
2023-05-14T00:41:34.672Z,40.08
2023-05-14T00:46:38.350Z,41.64
2023-05-14T00:51:46.751Z,41.72
2023-05-14T00:56:51.890Z,41.82
2023-05-14T01:01:55.625Z,41.49
2023-05-14T01:07:09.278Z,41.28
2023-05-14T01:12:18.960Z,41.44
2023-05-14T01:17:23.275Z,40.86
2023-05-14T01:22:28.012Z,41.19
2023-05-14T01:27:36.860Z,40.66
2023-05-14T01:32:40.860Z,40.98
2023-05-14T01:37:46.806Z,40.71
2023-05-14T01:42:52.197Z,40.10
2023-05-14T01:47:55.868Z,40.56
2023-05-14T01:53:00.972Z,42.76
2023-05-14T01:58:04.512Z,42.88
2023-05-14T02:03:08.170Z,43.20
2023-05-14T02:08:13.017Z,43.86
2023-05-14T02:13:16.553Z,43.47
2023-05-14T02:18:20.289Z,43.36
2023-05-14T02:23:34.043Z,42.47
2023-05-14T02:28:37.864Z,41.67
2023-05-14T02:33:41.337Z,41.52
2023-05-14T02:38:46.407Z,41.10
2023-05-14T02:43:50.026Z,43.64
2023-05-14T02:48:53.482Z,42.39
2023-05-14T02:53:58.838Z,41.97
2023-05-14T02:59:02.451Z,42.36
2023-05-14T03:04:06.596Z,42.29
2023-05-14T03:09:11.363Z,42.07
2023-05-14T03:14:14.809Z,42.75
2023-05-14T03:19:18.180Z,42.17
2023-05-14T03:24:22.985Z,44.32
2023-05-14T03:29:26.668Z,42.72
2023-05-14T03:34:30.086Z,42.73
2023-05-14T03:39:35.032Z,44.39
2023-05-14T03:44:41.482Z,44.01
2023-05-14T03:49:45.012Z,43.54
2023-05-14T03:54:51.480Z,43.70
2023-05-14T03:59:54.846Z,44.72
2023-05-14T04:04:58.239Z,44.96
2023-05-14T04:10:04.721Z,45.24
2023-05-14T04:15:10.440Z,45.52
2023-05-14T04:20:13.963Z,44.84
2023-05-14T04:25:19.344Z,44.67
2023-05-14T04:30:23.035Z,44.54
2023-05-14T04:35:26.583Z,44.63
2023-05-14T04:40:31.874Z,44.95
2023-05-14T04:45:35.444Z,44.69
2023-05-14T04:50:38.816Z,44.34
2023-05-14T04:55:43.507Z,44.71
2023-05-14T05:00:47.209Z,45.31
2023-05-14T05:05:50.878Z,43.87
2023-05-14T05:10:55.780Z,44.19
2023-05-14T05:15:59.629Z,42.22
2023-05-14T05:21:03.060Z,41.70
2023-05-14T05:26:07.957Z,42.59
2023-05-14T05:31:11.354Z,42.12
2023-05-14T05:36:15.265Z,40.53
2023-05-14T05:41:20.470Z,40.91
2023-05-14T05:46:23.833Z,40.51
2023-05-14T05:51:27.500Z,40.72
2023-05-14T05:56:32.351Z,39.53
2023-05-14T06:01:35.964Z,39.38
2023-05-14T06:06:39.445Z,39.33
2023-05-14T06:11:44.400Z,39.42
2023-05-14T06:16:48.338Z,39.24
2023-05-14T06:21:52.095Z,38.87
2023-05-14T06:26:56.781Z,38.00
2023-05-14T06:32:04.027Z,37.33
2023-05-14T06:37:07.486Z,37.87
2023-05-14T06:42:12.217Z,36.72
2023-05-14T06:47:15.586Z,36.44
2023-05-14T06:52:18.952Z,35.99
2023-05-14T06:57:23.628Z,35.76
2023-05-14T07:02:27.058Z,35.07
2023-05-14T07:07:30.426Z,34.30
2023-05-14T07:12:35.192Z,34.68
2023-05-14T07:17:38.803Z,34.29
2023-05-14T07:22:42.171Z,34.06
2023-05-14T07:27:46.918Z,33.02
2023-05-14T07:32:50.633Z,33.27
2023-05-14T07:37:54.363Z,33.51
2023-05-14T07:42:59.277Z,32.41
2023-05-14T07:48:02.722Z,33.12
2023-05-14T07:53:06.156Z,32.16
2023-05-14T07:58:10.909Z,30.88
2023-05-14T08:03:14.872Z,31.68
2023-05-14T08:08:18.479Z,30.30
2023-05-14T08:13:23.259Z,30.52
2023-05-14T08:18:26.954Z,30.43
2023-05-14T08:23:30.340Z,30.08
2023-05-14T08:28:35.190Z,28.91
2023-05-14T08:33:38.592Z,28.76
2023-05-14T08:38:42.389Z,28.41
2023-05-14T08:43:53.448Z,27.56
2023-05-14T08:48:59.870Z,28.25
2023-05-14T08:54:04.768Z,27.69
2023-05-14T08:59:10.355Z,28.62
2023-05-14T09:04:15.860Z,27.50
2023-05-14T09:09:22.715Z,27.35
2023-05-14T09:14:30.229Z,26.92
2023-05-14T09:19:33.804Z,26.63
2023-05-14T09:24:38.692Z,26.26
2023-05-14T09:29:43.531Z,25.12
2023-05-14T09:34:47.111Z,25.12
2023-05-14T09:39:50.960Z,24.24
2023-05-14T09:44:56.024Z,23.91
2023-05-14T09:49:59.419Z,24.51
2023-05-14T09:55:02.896Z,24.45
2023-05-14T10:00:10.209Z,23.02
2023-05-14T10:05:15.854Z,22.08
2023-05-14T10:10:21.425Z,22.49
2023-05-14T10:15:32.043Z,22.66
2023-05-14T10:20:36.684Z,24.38
2023-05-14T10:25:42.922Z,21.00
2023-05-14T10:30:49.742Z,20.75
2023-05-14T10:35:57.622Z,20.89
2023-05-14T10:41:03.702Z,21.14
2023-05-14T10:46:11.061Z,20.58
2023-05-14T10:51:21.061Z,19.16
2023-05-14T10:56:26.240Z,20.51
2023-05-14T11:01:34.018Z,21.70
2023-05-14T11:06:40.141Z,20.80
2023-05-14T11:11:45.632Z,19.99
2023-05-14T11:16:51.952Z,19.87
2023-05-14T11:21:55.548Z,22.00
2023-05-14T11:26:58.996Z,20.89
2023-05-14T11:32:05.876Z,19.82
2023-05-14T11:37:10.735Z,19.92
2023-05-14T11:42:16.733Z,21.63
2023-05-14T11:47:22.549Z,22.58
2023-05-14T11:52:25.910Z,20.99
2023-05-14T11:57:29.320Z,21.70
2023-05-14T12:02:34.431Z,21.12
2023-05-14T12:07:38.141Z,20.75
2023-05-14T12:12:41.570Z,23.42
2023-05-14T12:17:50.921Z,18.40
2023-05-14T12:22:54.378Z,17.63
2023-05-14T12:27:57.809Z,18.62
2023-05-14T12:33:02.548Z,18.34
2023-05-14T12:38:06.219Z,18.56
2023-05-14T12:43:09.554Z,18.39
2023-05-14T12:48:14.453Z,19.70
2023-05-14T12:53:18.143Z,18.63
2023-05-14T12:58:21.589Z,17.49
2023-05-14T13:03:27.306Z,18.51
2023-05-14T13:08:31.209Z,18.75
2023-05-14T13:13:34.596Z,19.43
2023-05-14T13:18:39.374Z,18.43
2023-05-14T13:23:42.759Z,19.00
2023-05-14T13:28:46.558Z,18.92
2023-05-14T13:33:51.515Z,20.50
2023-05-14T13:38:54.961Z,19.55
2023-05-14T13:43:58.573Z,18.14
2023-05-14T13:49:03.306Z,18.77
2023-05-14T13:54:07.036Z,18.58
2023-05-14T13:59:11.089Z,20.43
2023-05-14T14:04:16.446Z,21.08
2023-05-14T14:09:19.844Z,23.58
2023-05-14T14:14:23.231Z,23.76
2023-05-14T14:19:28.148Z,23.80
2023-05-14T14:24:31.505Z,24.23
2023-05-14T14:29:35.664Z,23.71
2023-05-14T14:34:40.386Z,23.89
2023-05-14T14:39:43.804Z,22.11
2023-05-14T14:44:47.381Z,23.04
2023-05-14T14:49:52.326Z,22.67
2023-05-14T14:54:56.468Z,22.41
2023-05-14T15:00:01.495Z,22.92
2023-05-14T15:05:08.293Z,23.45
2023-05-14T15:10:11.996Z,23.09
2023-05-14T15:15:15.422Z,23.45
2023-05-14T15:20:20.248Z,24.46
2023-05-14T15:25:25.092Z,24.27
2023-05-14T15:30:28.832Z,24.16
2023-05-14T15:35:33.747Z,23.32
2023-05-14T15:40:37.327Z,22.88
2023-05-14T15:45:40.740Z,22.53
2023-05-14T15:50:48.984Z,21.08
2023-05-14T15:55:53.104Z,21.19
2023-05-14T16:00:56.471Z,21.16
2023-05-14T16:06:01.164Z,21.58
2023-05-14T16:11:05.458Z,19.24
2023-05-14T16:16:09.222Z,19.81
2023-05-14T16:21:14.150Z,18.55
2023-05-14T16:26:17.554Z,18.39
2023-05-14T16:31:21.021Z,20.23
2023-05-14T16:36:26.468Z,20.00
2023-05-14T16:41:29.969Z,20.57
2023-05-14T16:46:34.151Z,20.36
2023-05-14T16:51:42.970Z,19.34
2023-05-14T16:56:48.066Z,19.29
2023-05-14T17:01:51.836Z,19.36
2023-05-14T17:06:57.308Z,19.77
2023-05-14T17:12:01.025Z,19.14
2023-05-14T17:17:05.540Z,20.13
2023-05-14T17:22:10.955Z,20.71
2023-05-14T17:27:16.003Z,20.62
2023-05-14T17:32:20.284Z,21.63
2023-05-14T17:37:25.168Z,21.48
2023-05-14T17:42:28.554Z,20.90
2023-05-14T17:47:32.112Z,21.67
2023-05-14T17:52:37.669Z,21.49
2023-05-14T17:57:41.589Z,22.13
2023-05-14T18:02:45.115Z,21.57
2023-05-14T18:07:50.094Z,22.23
2023-05-14T18:12:53.827Z,22.70
2023-05-14T18:17:57.386Z,23.12
2023-05-14T18:23:02.429Z,22.12
2023-05-14T18:28:06.195Z,22.44
2023-05-14T18:33:09.624Z,23.32
2023-05-14T18:38:15.344Z,23.50
2023-05-14T18:43:19.934Z,25.27
2023-05-14T18:48:23.393Z,25.23
2023-05-14T18:53:29.234Z,26.53
2023-05-14T18:58:32.834Z,27.31
2023-05-14T19:03:36.348Z,27.54
2023-05-14T19:08:41.533Z,28.12
2023-05-14T19:13:46.701Z,28.52
2023-05-14T19:18:50.159Z,30.11
2023-05-14T19:23:55.009Z,30.82
2023-05-14T19:28:58.885Z,31.13
2023-05-14T19:34:02.484Z,31.78
2023-05-14T19:39:07.231Z,32.02
2023-05-14T19:44:10.567Z,32.22
2023-05-14T19:49:14.057Z,32.94
2023-05-14T19:54:19.200Z,32.47
2023-05-14T19:59:23.142Z,33.75
2023-05-14T20:04:26.588Z,33.62
2023-05-14T20:09:31.510Z,34.06
2023-05-14T20:14:35.041Z,34.49
2023-05-14T20:19:38.636Z,36.06
2023-05-14T20:24:44.215Z,35.39
2023-05-14T20:29:51.417Z,35.62
2023-05-14T20:34:54.951Z,35.76
2023-05-14T20:40:00.509Z,35.70
2023-05-14T20:45:05.281Z,35.30
2023-05-14T20:50:09.966Z,35.88
2023-05-14T20:55:15.094Z,35.11
2023-05-14T21:00:19.695Z,35.51
2023-05-14T21:05:23.769Z,35.85
2023-05-14T21:10:29.011Z,36.08
2023-05-14T21:15:32.685Z,36.41
2023-05-14T21:20:36.349Z,35.97
2023-05-14T21:25:41.342Z,36.35
2023-05-14T21:30:45.045Z,36.64
2023-05-14T21:35:48.685Z,36.98
2023-05-14T21:40:53.960Z,36.36
2023-05-14T21:45:59.142Z,36.39
2023-05-14T21:51:02.683Z,35.87
2023-05-14T21:56:10.947Z,36.68
2023-05-14T22:01:14.555Z,36.89
2023-05-14T22:06:18.134Z,38.22
2023-05-14T22:11:23.489Z,37.22
2023-05-14T22:16:27.414Z,38.90
2023-05-14T22:21:30.997Z,38.06
2023-05-14T22:26:35.969Z,38.14
2023-05-14T22:31:39.603Z,37.83
2023-05-14T22:36:43.210Z,38.28
2023-05-14T22:41:55.105Z,38.31
2023-05-14T22:46:59.258Z,38.85
2023-05-14T22:52:05.953Z,39.29
2023-05-14T22:57:11.071Z,39.30
2023-05-14T23:02:17.631Z,39.66
2023-05-14T23:07:26.117Z,39.43
2023-05-14T23:12:31.671Z,40.18
2023-05-14T23:17:35.229Z,41.31
2023-05-14T23:22:38.725Z,40.28
2023-05-14T23:27:43.687Z,39.76
2023-05-14T23:32:47.548Z,41.74
2023-05-14T23:37:51.151Z,41.43
2023-05-14T23:42:57.345Z,40.68
2023-05-14T23:48:02.677Z,40.81
2023-05-14T23:53:06.209Z,40.55
2023-05-14T23:58:12.801Z,40.80
